Time;durP1;ratioP1;P1;durP2;ratioP2;P2;SDS_P1;SDS_P2;PMS_P1;PMS_P2;Temp;Humidity;BMP_temperature;BMP_pressure;BME280_temperature;BME280_humidity;BME280_pressure;Samples;Min_cycle;Max_cycle;Signal;HPM_P1;HPM_P2
2021/11/16 00:01:25;;;;;;;33.42;20.75;;;11.20;99.90;;;;;;5035871;28;20512;-72
2021/11/16 00:03:51;;;;;;;41.35;20.52;;;11.10;99.90;;;;;;5053816;28;20398;-73
2021/11/16 00:06:17;;;;;;;36.70;22.67;;;11.00;99.90;;;;;;5053753;28;20119;-74
2021/11/16 00:08:43;;;;;;;31.17;19.25;;;11.00;99.90;;;;;;5053683;28;20033;-72
2021/11/16 00:11:09;;;;;;;35.15;19.33;;;11.00;99.90;;;;;;5053652;28;20114;-72
2021/11/16 00:13:35;;;;;;;31.20;18.88;;;11.00;99.90;;;;;;5053604;28;20017;-72
2021/11/16 00:16:00;;;;;;;37.97;22.92;;;10.90;99.90;;;;;;5053871;28;20021;-74
2021/11/16 00:18:28;;;;;;;40.47;21.65;;;10.90;99.90;;;;;;5053571;28;20013;-73
2021/11/16 00:20:56;;;;;;;42.65;23.55;;;10.90;99.90;;;;;;5035521;28;20120;-72
2021/11/16 00:23:23;;;;;;;29.95;19.25;;;10.90;99.90;;;;;;5053502;28;20056;-74
2021/11/16 00:25:54;;;;;;;36.85;21.70;;;11.00;99.90;;;;;;5053413;28;20075;-74
2021/11/16 00:28:22;;;;;;;39.47;22.40;;;11.00;99.90;;;;;;5053456;28;20126;-74
2021/11/16 00:30:48;;;;;;;37.35;22.08;;;10.90;99.90;;;;;;5053654;28;20052;-73
2021/11/16 00:33:15;;;;;;;31.67;19.67;;;10.90;99.90;;;;;;5053344;28;20068;-75
2021/11/16 00:35:42;;;;;;;36.08;22.15;;;10.90;99.90;;;;;;5053307;28;20495;-75
2021/11/16 00:38:10;;;;;;;34.97;22.60;;;10.90;99.90;;;;;;5053228;28;20028;-73
2021/11/16 00:40:38;;;;;;;42.10;24.38;;;10.80;99.90;;;;;;5053252;28;20070;-74
2021/11/16 00:43:07;;;;;;;34.92;18.45;;;10.80;99.90;;;;;;5053045;28;20483;-74
2021/11/16 00:45:34;;;;;;;33.45;19.83;;;10.90;99.90;;;;;;5035091;28;20025;-73
2021/11/16 00:47:59;;;;;;;37.55;21.23;;;10.90;99.90;;;;;;5053733;28;20384;-72
2021/11/16 00:50:25;;;;;;;36.35;23.05;;;10.80;99.90;;;;;;5053682;28;20123;-72
2021/11/16 00:52:51;;;;;;;34.47;20.88;;;10.80;99.90;;;;;;5053101;28;20017;-72
2021/11/16 00:55:17;;;;;;;31.50;18.48;;;10.90;99.90;;;;;;5053061;28;20502;-74
2021/11/16 00:57:43;;;;;;;34.38;20.58;;;11.00;99.90;;;;;;5035180;28;20107;-73
2021/11/16 01:00:12;;;;;;;35.42;20.95;;;10.90;99.90;;;;;;5053014;28;20522;-73
2021/11/16 01:02:37;;;;;;;35.03;20.13;;;10.90;99.90;;;;;;5052730;28;20025;-74
2021/11/16 01:05:04;;;;;;;34.35;20.05;;;10.90;99.90;;;;;;5053534;28;20031;-72
2021/11/16 01:07:31;;;;;;;35.30;20.75;;;10.90;99.90;;;;;;5057134;28;20518;-73
2021/11/16 01:09:58;;;;;;;33.05;20.05;;;10.90;99.90;;;;;;5039139;28;20499;-74
2021/11/16 01:12:25;;;;;;;33.40;18.90;;;10.80;99.90;;;;;;5057045;28;20055;-73
2021/11/16 01:14:52;;;;;;;39.22;20.98;;;10.80;99.90;;;;;;5057229;28;20029;-72
2021/11/16 01:17:18;;;;;;;36.13;19.83;;;10.80;99.90;;;;;;5056990;28;20060;-72
2021/11/16 01:19:46;;;;;;;35.72;19.60;;;10.80;99.90;;;;;;5039013;28;20437;-74
2021/11/16 01:22:12;;;;;;;30.73;19.00;;;10.80;99.90;;;;;;5056807;28;20487;-73
2021/11/16 01:24:39;;;;;;;33.05;20.75;;;10.80;99.90;;;;;;5056830;28;20108;-72
2021/11/16 01:27:07;;;;;;;28.33;18.08;;;10.80;99.90;;;;;;5038929;28;20082;-72
2021/11/16 01:29:35;;;;;;;32.03;19.75;;;10.70;99.90;;;;;;5057271;28;20535;-74
2021/11/16 01:32:01;;;;;;;35.55;19.50;;;10.60;99.90;;;;;;5056981;28;20032;-74
2021/11/16 01:34:30;;;;;;;39.13;20.30;;;10.60;99.90;;;;;;5056644;28;20029;-74
2021/11/16 01:36:56;;;;;;;32.10;19.15;;;10.70;99.90;;;;;;5056601;28;20043;-71
2021/11/16 01:39:22;;;;;;;32.80;19.40;;;10.80;99.90;;;;;;5056570;28;20025;-73
2021/11/16 01:41:48;;;;;;;34.75;19.70;;;10.70;99.90;;;;;;5038536;28;20021;-73
2021/11/16 01:44:14;;;;;;;39.22;20.65;;;10.60;99.90;;;;;;5056415;28;20032;-74
2021/11/16 01:46:40;;;;;;;34.67;20.98;;;10.50;99.90;;;;;;5056336;28;20564;-72
2021/11/16 01:49:08;;;;;;;35.85;20.98;;;10.50;99.90;;;;;;5056659;28;20053;-73
2021/11/16 01:51:34;;;;;;;31.40;18.58;;;10.50;99.90;;;;;;5056298;28;20083;-74
2021/11/16 01:54:02;;;;;;;32.03;17.67;;;10.50;99.90;;;;;;5056240;28;20025;-73
2021/11/16 01:56:38;;;;;;;33.63;19.70;;;10.60;99.90;;;;;;5056258;28;20521;-73
2021/11/16 01:59:05;;;;;;;32.67;19.20;;;10.60;99.90;;;;;;5056509;28;20052;-74
2021/11/16 02:01:32;;;;;;;40.40;21.98;;;10.60;99.90;;;;;;5056097;28;20104;-73
2021/11/16 02:03:58;;;;;;;33.70;20.77;;;10.60;99.90;;;;;;5038245;28;20393;-74
2021/11/16 02:06:27;;;;;;;34.15;20.80;;;10.70;99.90;;;;;;5056324;28;20025;-73
2021/11/16 02:08:55;;;;;;;34.20;20.58;;;10.70;99.90;;;;;;5056017;28;20079;-72
2021/11/16 02:11:22;;;;;;;33.30;20.15;;;10.70;99.90;;;;;;5055933;28;20056;-73
2021/11/16 02:13:47;;;;;;;35.92;20.35;;;10.60;99.90;;;;;;5056226;28;20031;-74
2021/11/16 02:16:14;;;;;;;37.53;22.13;;;10.70;99.90;;;;;;5055636;28;20029;-75
2021/11/16 02:18:40;;;;;;;31.23;19.48;;;10.70;99.90;;;;;;5055802;28;20025;-74
2021/11/16 02:21:08;;;;;;;33.50;18.85;;;10.60;99.90;;;;;;5055973;28;20025;-74
2021/11/16 02:23:34;;;;;;;34.47;19.98;;;10.70;99.90;;;;;;5055975;28;20032;-73
2021/11/16 02:26:00;;;;;;;32.15;19.38;;;10.70;99.90;;;;;;5055663;28;20025;-73
2021/11/16 02:28:27;;;;;;;30.00;18.27;;;10.70;99.90;;;;;;5056115;28;20025;-73
2021/11/16 02:30:54;;;;;;;32.05;19.17;;;10.80;99.90;;;;;;5055826;28;20055;-73
2021/11/16 02:33:20;;;;;;;31.58;18.33;;;10.80;99.90;;;;;;5037635;28;20387;-73
2021/11/16 02:35:46;;;;;;;28.05;17.20;;;10.80;99.90;;;;;;5055741;28;20028;-73
2021/11/16 02:38:12;;;;;;;31.73;19.63;;;10.80;99.90;;;;;;5055452;28;20029;-73
2021/11/16 02:40:38;;;;;;;33.35;17.88;;;10.80;99.90;;;;;;5055676;28;20017;-72
2021/11/16 02:43:04;;;;;;;34.15;21.13;;;10.80;99.90;;;;;;5055223;28;20064;-73
2021/11/16 02:45:30;;;;;;;33.17;20.58;;;10.80;99.90;;;;;;5055046;28;20457;-73
2021/11/16 02:47:56;;;;;;;33.55;20.67;;;10.70;99.90;;;;;;5055561;28;20060;-74
2021/11/16 02:50:22;;;;;;;32.92;19.15;;;10.70;99.90;;;;;;5055504;28;20107;-72
2021/11/16 02:52:48;;;;;;;32.78;18.58;;;10.80;99.90;;;;;;5037298;28;20486;-73
2021/11/16 02:55:15;;;;;;;33.40;19.83;;;10.80;99.90;;;;;;5055158;28;20063;-73
2021/11/16 02:57:41;;;;;;;34.08;19.58;;;10.80;99.90;;;;;;5055097;28;20033;-73
2021/11/16 03:00:11;;;;;;;33.92;20.05;;;10.80;99.90;;;;;;5055062;28;20398;-73
2021/11/16 03:02:39;;;;;;;34.13;20.35;;;10.80;99.90;;;;;;5055632;28;20120;-73
2021/11/16 03:05:05;;;;;;;30.65;18.20;;;10.80;99.90;;;;;;5054969;28;20020;-75
2021/11/16 03:07:40;;;;;;;33.30;18.88;;;10.80;99.90;;;;;;5037031;28;20029;-73
2021/11/16 03:10:06;;;;;;;32.88;18.80;;;10.80;99.90;;;;;;5055247;28;20021;-74
2021/11/16 03:12:32;;;;;;;34.67;19.63;;;10.80;99.90;;;;;;5054769;28;20025;-73
2021/11/16 03:14:58;;;;;;;32.00;18.38;;;10.70;99.90;;;;;;5054791;28;20028;-72
2021/11/16 03:17:26;;;;;;;35.25;19.85;;;10.80;99.90;;;;;;5055026;28;20391;-73
2021/11/16 03:19:52;;;;;;;33.05;19.80;;;10.70;99.90;;;;;;5054685;28;20036;-73
2021/11/16 03:22:22;;;;;;;33.45;19.05;;;10.70;99.90;;;;;;5054886;28;20463;-72
2021/11/16 03:24:49;;;;;;;37.20;20.60;;;10.60;99.90;;;;;;5054623;28;20065;-73
2021/11/16 03:27:17;;;;;;;35.40;20.85;;;10.60;99.90;;;;;;5054409;28;20074;-73
2021/11/16 03:29:47;;;;;;;40.38;22.00;;;10.70;99.90;;;;;;5053793;28;20035;-74
2021/11/16 03:32:16;;;;;;;34.35;20.63;;;10.70;99.90;;;;;;5054715;28;20036;-73
2021/11/16 03:34:48;;;;;;;35.80;21.13;;;10.80;99.90;;;;;;5054959;28;20032;-73
2021/11/16 03:37:16;;;;;;;36.95;21.35;;;10.80;99.90;;;;;;5054372;28;20032;-73
2021/11/16 03:39:42;;;;;;;37.47;23.10;;;10.70;99.90;;;;;;5054290;28;20075;-74
2021/11/16 03:42:09;;;;;;;40.50;20.88;;;10.60;99.90;;;;;;5054163;28;20024;-75
2021/11/16 03:44:35;;;;;;;38.83;21.98;;;10.70;99.90;;;;;;5054419;28;20021;-72
2021/11/16 03:47:02;;;;;;;37.08;20.42;;;10.60;99.90;;;;;;5053957;28;20533;-74
2021/11/16 03:49:28;;;;;;;39.33;22.67;;;10.60;99.90;;;;;;5054147;28;20017;-74
2021/11/16 03:51:54;;;;;;;39.85;22.33;;;10.60;99.90;;;;;;5054071;28;20368;-74
2021/11/16 03:54:20;;;;;;;37.50;21.55;;;10.60;99.90;;;;;;5054012;28;20398;-72
2021/11/16 03:56:47;;;;;;;38.63;23.45;;;10.70;99.90;;;;;;5053957;28;20490;-73
2021/11/16 03:59:13;;;;;;;39.72;22.10;;;10.80;99.90;;;;;;5053888;28;20477;-74
2021/11/16 04:01:39;;;;;;;38.08;21.63;;;10.80;99.90;;;;;;5053808;28;20020;-73
2021/11/16 04:04:05;;;;;;;37.83;21.85;;;10.80;99.90;;;;;;5054161;28;20025;-74
2021/11/16 04:06:31;;;;;;;42.92;23.65;;;10.80;99.90;;;;;;5035927;28;20425;-73
2021/11/16 04:08:58;;;;;;;39.08;22.27;;;10.80;99.90;;;;;;5053763;28;20087;-73
2021/11/16 04:11:25;;;;;;;35.90;21.40;;;10.80;99.90;;;;;;5053989;28;20021;-74
2021/11/16 04:13:50;;;;;;;42.05;22.42;;;10.90;99.90;;;;;;5053672;28;20021;-73
2021/11/16 04:16:16;;;;;;;35.60;20.45;;;10.90;99.90;;;;;;5053643;28;20021;-74
2021/11/16 04:18:43;;;;;;;39.08;22.90;;;10.80;99.90;;;;;;5053592;28;20550;-74
2021/11/16 04:21:09;;;;;;;39.58;23.38;;;10.80;99.90;;;;;;5053999;28;20092;-73
2021/11/16 04:23:35;;;;;;;38.67;22.42;;;10.80;99.90;;;;;;5053729;28;20099;-71
2021/11/16 04:26:02;;;;;;;40.50;22.10;;;10.80;99.90;;;;;;5053741;28;20424;-72
2021/11/16 04:28:28;;;;;;;37.08;21.92;;;10.80;99.90;;;;;;5053427;28;20029;-72
2021/11/16 04:30:59;;;;;;;37.55;21.08;;;10.80;99.90;;;;;;5053380;28;20540;-74
2021/11/16 04:33:24;;;;;;;48.47;24.08;;;10.70;99.90;;;;;;5053394;28;20027;-73
2021/11/16 04:35:50;;;;;;;36.55;19.95;;;10.70;99.90;;;;;;5053567;28;20037;-74
2021/11/16 04:38:17;;;;;;;36.72;21.33;;;10.60;99.90;;;;;;5053606;28;20021;-73
2021/11/16 04:40:44;;;;;;;40.00;21.27;;;10.60;99.90;;;;;;5053127;28;20094;-73
2021/11/16 04:43:18;;;;;;;35.95;18.77;;;10.70;99.90;;;;;;5035163;28;20075;-73
2021/11/16 04:45:44;;;;;;;36.47;21.40;;;10.60;99.90;;;;;;5034898;28;20041;-73
2021/11/16 04:51:40;;;;;;;38.30;21.48;;;10.50;99.90;;;;;;4982069;28;20038;-73
2021/11/16 04:54:37;;;;;;;40.15;21.25;;;10.50;99.90;;;;;;5053093;28;20015;-74
2021/11/16 04:59:48;;;;;;;38.25;20.98;;;10.50;99.90;;;;;;5053091;28;20031;-72
2021/11/16 05:04:59;;;;;;;41.38;22.42;;;10.60;99.90;;;;;;5053063;28;20066;-73
2021/11/16 05:07:28;;;;;;;42.63;22.65;;;10.60;99.90;;;;;;5053016;28;20467;-73
2021/11/16 05:09:56;;;;;;;38.72;21.85;;;10.60;99.90;;;;;;5035050;28;20028;-73
2021/11/16 05:12:26;;;;;;;37.65;20.00;;;10.50;99.90;;;;;;5052929;28;20033;-72
2021/11/16 05:14:53;;;;;;;40.65;21.50;;;10.50;99.90;;;;;;5052923;28;20017;-74
2021/11/16 05:17:18;;;;;;;37.10;20.48;;;10.60;99.90;;;;;;5052770;28;20423;-72
2021/11/16 05:19:45;;;;;;;41.80;22.48;;;10.60;99.90;;;;;;5052854;28;20025;-74
2021/11/16 05:22:11;;;;;;;38.75;22.30;;;10.60;99.90;;;;;;5034880;28;20498;-72
2021/11/16 05:24:36;;;;;;;35.70;21.00;;;10.70;99.90;;;;;;5053081;28;20456;-73
2021/11/16 05:27:03;;;;;;;38.33;22.42;;;10.70;99.90;;;;;;5052836;28;20049;-74
2021/11/16 05:29:28;;;;;;;39.05;20.83;;;10.70;99.90;;;;;;5034914;28;20079;-73
2021/11/16 05:31:54;;;;;;;36.70;20.63;;;10.70;99.90;;;;;;5053003;28;20475;-74
2021/11/16 05:34:20;;;;;;;40.33;21.52;;;10.70;99.90;;;;;;5052982;28;20495;-72
2021/11/16 05:36:46;;;;;;;36.53;21.20;;;10.80;99.90;;;;;;5052749;28;20107;-74
2021/11/16 05:39:12;;;;;;;37.33;21.27;;;10.70;99.90;;;;;;5052981;28;20017;-72
2021/11/16 05:41:38;;;;;;;35.13;19.83;;;10.70;99.90;;;;;;5052611;28;20110;-73
2021/11/16 05:44:05;;;;;;;50.35;21.08;;;10.60;99.90;;;;;;5053074;28;20021;-73
2021/11/16 05:46:30;;;;;;;39.22;20.75;;;10.70;99.90;;;;;;5052496;28;20077;-74
2021/11/16 05:48:56;;;;;;;39.90;21.42;;;10.70;99.90;;;;;;5052870;28;20107;-73
2021/11/16 05:51:27;;;;;;;37.08;19.67;;;10.60;99.90;;;;;;5053317;28;20081;-74
2021/11/16 05:53:57;;;;;;;38.50;20.83;;;10.60;99.90;;;;;;5056647;28;20017;-72
2021/11/16 05:56:28;;;;;;;49.40;20.48;;;10.70;99.90;;;;;;5056576;28;20425;-73
2021/11/16 05:58:57;;;;;;;36.20;20.58;;;10.60;99.90;;;;;;5056225;28;20025;-72
2021/11/16 06:01:25;;;;;;;46.05;28.83;;;10.60;99.90;;;;;;5038265;28;20029;-74
2021/11/16 06:03:52;;;;;;;42.85;23.27;;;10.60;99.90;;;;;;5056189;28;20017;-73
2021/11/16 06:06:22;;;;;;;40.00;23.15;;;10.60;99.90;;;;;;5056679;28;20383;-73
2021/11/16 06:08:49;;;;;;;;;;;10.60;99.90;;;;;;5056844;28;20429;-73
2021/11/16 06:11:18;;;;;;;40.10;19.15;;;10.60;99.90;;;;;;5056025;28;19905;-73
2021/11/16 06:13:45;;;;;;;40.67;21.37;;;10.60;99.90;;;;;;5055956;28;20025;-74
2021/11/16 06:16:11;;;;;;;43.65;22.48;;;10.50;99.90;;;;;;5055913;28;20313;-74
2021/11/16 06:18:38;;;;;;;39.58;22.27;;;10.60;99.90;;;;;;5055882;28;20100;-72
2021/11/16 06:21:03;;;;;;;38.47;21.17;;;10.60;99.90;;;;;;5055781;28;20467;-73
2021/11/16 06:23:29;;;;;;;37.92;22.08;;;10.50;99.90;;;;;;5055698;28;20025;-73
2021/11/16 06:25:55;;;;;;;74.20;46.80;;;10.60;99.90;;;;;;5055726;28;20152;-74
2021/11/16 06:28:21;;;;;;;71.82;44.05;;;10.60;99.90;;;;;;5056254;28;20017;-72
2021/11/16 06:30:47;;;;;;;60.50;34.38;;;10.50;99.90;;;;;;5055594;28;20108;-74
2021/11/16 06:33:18;;;;;;;44.85;24.02;;;10.50;99.90;;;;;;5055582;28;20029;-72
2021/11/16 06:35:44;;;;;;;44.70;23.17;;;10.60;99.90;;;;;;5055570;28;20029;-73
2021/11/16 06:38:09;;;;;;;47.65;24.80;;;10.60;99.90;;;;;;5056052;28;20029;-74
2021/11/16 06:40:35;;;;;;;38.47;20.90;;;10.60;99.90;;;;;;5037566;28;20029;-73
2021/11/16 06:43:01;;;;;;;45.88;24.15;;;10.60;99.90;;;;;;5055195;28;20025;-73
2021/11/16 06:45:26;;;;;;;51.90;23.90;;;10.60;99.90;;;;;;5055317;28;20064;-72
2021/11/16 06:47:52;;;;;;;41.45;22.00;;;10.50;99.90;;;;;;5055365;28;20021;-72
2021/11/16 06:50:18;;;;;;;40.03;20.65;;;10.50;99.90;;;;;;5055312;28;20021;-72
2021/11/16 06:52:45;;;;;;;36.97;20.90;;;10.60;99.90;;;;;;5055519;28;20025;-73
2021/11/16 06:55:12;;;;;;;37.78;21.23;;;10.70;99.90;;;;;;5055201;28;20026;-74
2021/11/16 06:57:38;;;;;;;37.58;19.88;;;10.60;99.90;;;;;;5037255;28;20029;-73
2021/11/16 07:00:07;;;;;;;43.50;20.98;;;10.60;99.90;;;;;;5055383;28;20082;-73
2021/11/16 07:02:33;;;;;;;42.13;21.08;;;10.70;99.90;;;;;;5037069;28;20021;-72
2021/11/16 07:05:08;;;;;;;36.50;19.95;;;10.60;99.90;;;;;;5055320;28;20031;-73
2021/11/16 07:07:41;;;;;;;41.03;21.58;;;10.50;99.90;;;;;;5055253;28;20021;-73
2021/11/16 07:10:07;;;;;;;37.97;21.75;;;10.60;99.90;;;;;;5055532;28;20382;-74
2021/11/16 07:12:33;;;;;;;38.20;20.63;;;10.60;99.90;;;;;;5055139;28;20021;-73
2021/11/16 07:14:58;;;;;;;35.90;20.75;;;10.60;99.90;;;;;;5055096;28;20020;-74
2021/11/16 07:17:24;;;;;;;38.90;21.17;;;10.60;99.90;;;;;;5054778;28;20025;-73
2021/11/16 07:19:55;;;;;;;38.95;19.10;;;10.60;99.90;;;;;;5054719;28;20072;-73
2021/11/16 07:22:27;;;;;;;36.75;20.77;;;10.60;99.90;;;;;;5054935;28;20051;-73
2021/11/16 07:25:05;;;;;;;35.40;20.15;;;10.50;99.90;;;;;;5054614;28;20167;-74
2021/11/16 07:27:32;;;;;;;49.13;22.85;;;10.40;99.90;;;;;;5055182;28;20096;-73
2021/11/16 07:29:58;;;;;;;40.95;21.25;;;10.40;99.90;;;;;;5054797;28;20025;-74
2021/11/16 07:32:41;;;;;;;42.20;21.48;;;10.40;99.90;;;;;;5054432;28;20551;-74
2021/11/16 07:41:23;;;;;;;39.70;21.83;;;10.50;99.90;;;;;;4377033;28;20497;-72
2021/11/16 07:43:49;;;;;;;38.63;19.60;;;10.60;99.90;;;;;;5054890;28;20401;-73
2021/11/16 07:46:15;;;;;;;42.63;24.73;;;10.70;99.90;;;;;;5054221;28;20381;-73
2021/11/16 07:48:41;;;;;;;40.47;21.95;;;10.70;99.90;;;;;;5054443;28;20096;-73
2021/11/16 07:51:13;;;;;;;36.22;20.30;;;10.50;99.90;;;;;;5054437;28;20021;-73
2021/11/16 07:53:47;;;;;;;42.72;22.63;;;10.40;99.90;;;;;;5054405;28;20047;-73
2021/11/16 07:56:21;;;;;;;41.63;22.25;;;10.50;99.90;;;;;;5053879;28;20074;-79
2021/11/16 07:59:02;;;;;;;40.67;21.00;;;10.50;99.90;;;;;;5051165;28;20021;-80
2021/11/16 08:04:18;;;;;;;38.75;21.92;;;10.30;99.90;;;;;;5054007;28;20167;-77
2021/11/16 08:07:14;;;;;;;41.15;21.05;;;10.30;99.90;;;;;;5050798;28;20058;-78
2021/11/16 08:14:57;;;;;;;43.78;20.60;;;10.50;99.90;;;;;;5053043;28;20158;-80
2021/11/16 08:17:24;;;;;;;40.97;22.95;;;10.60;99.90;;;;;;5053250;28;20094;-81
2021/11/16 08:19:56;;;;;;;39.05;20.38;;;10.50;99.90;;;;;;5035834;28;20025;-81
2021/11/16 08:22:22;;;;;;;37.38;19.30;;;10.60;99.90;;;;;;5052694;28;20032;-82
2021/11/16 08:24:48;;;;;;;39.83;20.13;;;10.70;99.90;;;;;;5053220;28;20044;-81
2021/11/16 08:27:28;;;;;;;43.42;21.52;;;10.70;99.90;;;;;;5053151;28;20025;-85
2021/11/16 08:30:05;;;;;;;48.13;23.70;;;10.60;99.90;;;;;;5034954;28;20612;-82
2021/11/16 08:32:38;;;;;;;46.45;25.92;;;10.60;99.90;;;;;;5054148;28;20433;-79
2021/11/16 08:35:20;;;;;;;41.67;21.75;;;10.60;99.90;;;;;;5053277;28;20103;-76
2021/11/16 08:37:48;;;;;;;37.47;19.13;;;10.70;99.90;;;;;;5049698;28;20036;-81
2021/11/16 08:40:20;;;;;;;35.78;19.92;;;10.70;99.90;;;;;;5032818;28;20502;-77
2021/11/16 08:42:59;;;;;;;38.90;19.77;;;10.70;99.90;;;;;;5015866;28;20092;-76
2021/11/16 08:45:28;;;;;;;36.07;18.30;;;10.70;99.90;;;;;;5033866;28;20028;-78
2021/11/16 08:48:16;;;;;;;37.25;21.17;;;10.70;99.90;;;;;;5033278;28;20093;-75
2021/11/16 08:50:50;;;;;;;36.78;20.60;;;10.70;99.90;;;;;;5032218;28;20037;-82
2021/11/16 08:53:26;;;;;;;39.55;20.65;;;10.60;99.90;;;;;;5015711;28;20487;-84
2021/11/16 08:55:53;;;;;;;38.05;22.55;;;10.60;99.90;;;;;;5033193;28;20040;-81
2021/11/16 08:58:23;;;;;;;38.55;21.30;;;10.70;99.90;;;;;;5033682;28;20017;-82
2021/11/16 09:00:51;;;;;;;;;;;10.70;99.90;;;;;;5033929;28;20546;-83
2021/11/16 09:03:24;;;;;;;40.58;22.23;;;10.70;99.90;;;;;;5015268;28;19913;-78
2021/11/16 09:05:51;;;;;;;39.72;21.75;;;10.70;99.90;;;;;;5033351;28;20475;-84
2021/11/16 09:08:25;;;;;;;40.10;21.92;;;10.70;99.90;;;;;;5033352;28;20030;-84
2021/11/16 09:10:57;;;;;;;37.92;23.15;;;10.70;99.90;;;;;;5016158;28;20026;-87
2021/11/16 09:13:24;;;;;;;41.15;22.85;;;10.80;99.90;;;;;;5032939;28;20142;-82
2021/11/16 09:16:02;;;;;;;49.17;24.98;;;10.70;99.90;;;;;;5032978;28;20024;-82
2021/11/16 09:18:36;;;;;;;44.20;24.83;;;10.80;99.90;;;;;;5033242;28;20033;-80
2021/11/16 09:21:09;;;;;;;41.25;22.67;;;10.80;99.90;;;;;;5015546;28;20036;-82
2021/11/16 09:23:39;;;;;;;48.72;23.73;;;10.80;99.90;;;;;;5032553;28;20029;-78
2021/11/16 09:28:56;;;;;;;41.17;21.77;;;10.80;99.90;;;;;;5037146;28;20112;-80
2021/11/16 09:31:29;;;;;;;41.53;22.50;;;10.80;99.90;;;;;;5036668;28;20032;-80
2021/11/16 09:33:59;;;;;;;46.95;24.00;;;10.80;99.90;;;;;;5036797;28;20091;-76
2021/11/16 09:36:34;;;;;;;43.27;22.73;;;10.80;99.90;;;;;;5036484;28;20401;-79
2021/11/16 09:39:07;;;;;;;47.80;23.67;;;10.80;99.90;;;;;;5037509;28;20521;-83
2021/11/16 09:41:43;;;;;;;37.55;21.30;;;10.80;99.90;;;;;;5018446;28;20510;-75
2021/11/16 09:44:09;;;;;;;38.22;21.98;;;10.80;99.90;;;;;;5034555;28;20061;-75
2021/11/16 09:46:53;;;;;;;40.60;21.08;;;10.90;99.90;;;;;;5036624;28;20053;-74
2021/11/16 09:49:26;;;;;;;36.47;19.67;;;10.80;99.90;;;;;;5036587;28;20025;-75
2021/11/16 09:51:59;;;;;;;38.10;20.17;;;10.80;99.90;;;;;;5036638;28;20108;-76
2021/11/16 09:54:25;;;;;;;43.95;24.95;;;10.90;99.90;;;;;;5036829;28;20076;-74
2021/11/16 09:57:03;;;;;;;44.67;22.63;;;10.90;99.90;;;;;;5036432;28;20025;-80
2021/11/16 09:59:30;;;;;;;50.88;26.05;;;10.90;99.90;;;;;;5018100;28;20022;-80
2021/11/16 10:01:55;;;;;;;40.60;22.45;;;11.00;99.90;;;;;;5036497;28;20117;-78
2021/11/16 10:04:30;;;;;;;39.85;22.08;;;10.90;99.90;;;;;;5035999;28;20519;-78
2021/11/16 10:06:56;;;;;;;42.20;21.52;;;11.00;99.90;;;;;;5036501;28;20029;-80
2021/11/16 10:09:23;;;;;;;45.00;22.75;;;10.90;99.90;;;;;;5035903;28;20552;-76
2021/11/16 10:11:51;;;;;;;44.58;23.83;;;11.00;99.90;;;;;;5017834;28;20116;-77
2021/11/16 10:14:19;;;;;;;47.63;24.30;;;10.90;99.90;;;;;;5036182;28;20017;-78
2021/11/16 10:16:46;;;;;;;44.30;23.67;;;10.90;99.90;;;;;;5035667;28;20061;-78
2021/11/16 10:19:13;;;;;;;47.45;25.70;;;10.90;99.90;;;;;;5035995;28;20048;-79
2021/11/16 10:21:38;;;;;;;51.40;24.92;;;10.90;99.90;;;;;;5035596;28;20035;-76
2021/11/16 10:24:30;;;;;;;44.88;23.70;;;11.00;99.90;;;;;;5035868;28;20517;-76
2021/11/16 10:27:02;;;;;;;39.63;22.02;;;11.00;99.90;;;;;;5035818;28;20025;-80
2021/11/16 10:29:29;;;;;;;42.67;24.17;;;11.00;99.90;;;;;;5036431;28;20018;-79
2021/11/16 10:31:55;;;;;;;37.70;21.23;;;11.10;99.90;;;;;;5035320;28;20033;-82
2021/11/16 10:34:37;;;;;;;39.60;21.33;;;11.00;99.90;;;;;;5019038;28;20029;-79
2021/11/16 10:37:05;;;;;;;43.15;23.58;;;11.10;99.90;;;;;;5035093;28;20135;-80
2021/11/16 10:39:31;;;;;;;43.78;24.67;;;11.10;99.90;;;;;;5036251;28;20017;-77
2021/11/16 10:41:58;;;;;;;38.15;22.52;;;11.10;99.90;;;;;;5034946;28;20395;-80
2021/11/16 10:44:24;;;;;;;42.92;23.27;;;11.10;99.90;;;;;;5035434;28;20378;-76
2021/11/16 10:46:50;;;;;;;41.45;22.63;;;11.10;99.90;;;;;;5035053;28;20112;-78
2021/11/16 10:49:19;;;;;;;42.63;22.33;;;11.10;99.90;;;;;;5017999;28;20156;-78
2021/11/16 10:51:47;;;;;;;45.88;22.05;;;11.10;99.90;;;;;;5017137;28;20030;-79
2021/11/16 10:54:13;;;;;;;40.25;22.20;;;11.10;99.90;;;;;;5035269;28;20510;-78
2021/11/16 10:56:40;;;;;;;40.67;20.15;;;11.20;99.90;;;;;;5035551;28;20083;-76
2021/11/16 10:59:17;;;;;;;41.80;21.85;;;11.10;99.90;;;;;;5017479;28;20106;-75
2021/11/16 11:01:56;;;;;;;38.85;21.65;;;11.10;99.90;;;;;;5033957;28;20116;-75
2021/11/16 11:04:24;;;;;;;38.78;21.88;;;11.20;99.90;;;;;;5035736;28;20046;-80
2021/11/16 11:06:50;;;;;;;43.05;23.05;;;11.20;99.90;;;;;;5035129;28;20108;-75
2021/11/16 11:09:18;;;;;;;35.20;18.77;;;11.30;99.90;;;;;;5035052;28;20021;-80
2021/11/16 11:11:46;;;;;;;38.95;23.52;;;11.20;99.90;;;;;;5034538;28;20029;-76
2021/11/16 11:14:12;;;;;;;37.95;22.90;;;11.20;99.90;;;;;;5034956;28;20033;-79
2021/11/16 11:16:45;;;;;;;44.45;25.23;;;11.30;99.90;;;;;;5035273;28;20040;-82
2021/11/16 11:19:20;;;;;;;38.50;22.08;;;11.40;99.90;;;;;;5035202;28;20108;-77
2021/11/16 11:21:57;;;;;;;39.55;22.05;;;11.40;99.90;;;;;;5034930;28;20414;-80
2021/11/16 11:24:36;;;;;;;50.58;23.08;;;11.40;99.90;;;;;;5035108;28;20029;-81
2021/11/16 11:27:10;;;;;;;42.47;23.02;;;11.40;99.90;;;;;;5034620;28;20485;-72
2021/11/16 11:29:51;;;;;;;39.40;20.50;;;11.40;99.90;;;;;;5013957;28;20026;-73
2021/11/16 11:32:19;;;;;;;41.15;21.65;;;11.50;99.90;;;;;;5013807;28;20033;-72
2021/11/16 11:34:59;;;;;;;36.08;21.83;;;11.50;99.90;;;;;;5013511;28;20026;-73
2021/11/16 11:37:34;;;;;;;40.50;21.98;;;11.50;99.90;;;;;;5014411;28;20080;-73
2021/11/16 11:40:02;;;;;;;42.67;21.83;;;11.50;99.90;;;;;;5013770;28;20415;-74
2021/11/16 11:42:39;;;;;;;41.20;23.50;;;11.40;99.90;;;;;;5013990;28;20092;-72
2021/11/16 11:48:13;;;;;;;38.97;21.85;;;11.40;99.90;;;;;;5014090;28;20026;-72
2021/11/16 11:50:43;;;;;;;37.28;21.25;;;11.50;99.90;;;;;;4989167;28;20385;-71
2021/11/16 11:53:30;;;;;;;42.30;23.73;;;11.60;99.90;;;;;;5014059;28;20026;-71
2021/11/16 11:56:02;;;;;;;41.22;22.77;;;11.60;99.90;;;;;;5012469;28;20101;-72
2021/11/16 11:58:31;;;;;;;39.45;22.40;;;11.70;99.90;;;;;;5012425;28;20025;-71
2021/11/16 12:01:01;;;;;;;37.40;22.05;;;11.70;99.90;;;;;;5012631;28;20033;-74
2021/11/16 12:03:28;;;;;;;49.28;25.50;;;11.70;99.90;;;;;;5012188;28;20025;-72
2021/11/16 12:05:54;;;;;;;45.70;26.95;;;11.80;99.90;;;;;;5012864;28;20026;-74
2021/11/16 12:08:20;;;;;;;44.92;26.40;;;11.70;99.90;;;;;;5012681;28;20072;-74
2021/11/16 12:10:49;;;;;;;43.80;24.83;;;11.70;99.90;;;;;;5014439;28;20030;-72
2021/11/16 12:13:31;;;;;;;42.53;23.38;;;11.80;99.90;;;;;;5014106;28;20026;-73
2021/11/16 12:16:09;;;;;;;38.00;22.60;;;11.90;99.90;;;;;;5014368;28;20030;-72
2021/11/16 12:19:05;;;;;;;37.00;20.98;;;11.90;99.90;;;;;;5014045;28;20088;-73
2021/11/16 12:21:39;;;;;;;39.13;21.48;;;12.00;99.90;;;;;;5014228;28;20053;-71
2021/11/16 12:24:08;;;;;;;42.22;23.20;;;12.00;99.90;;;;;;5014506;28;20014;-74
2021/11/16 12:26:53;;;;;;;37.67;22.20;;;12.00;99.90;;;;;;5014147;28;20022;-73
2021/11/16 12:29:21;;;;;;;45.72;24.02;;;11.90;99.90;;;;;;5014176;28;20068;-72
2021/11/16 12:31:50;;;;;;;43.72;22.35;;;11.90;99.90;;;;;;5013824;28;20044;-72
2021/11/16 12:34:39;;;;;;;40.97;23.98;;;11.90;99.90;;;;;;5013798;28;20035;-74
2021/11/16 12:37:07;;;;;;;46.05;27.13;;;12.00;99.90;;;;;;5014064;28;20029;-74
2021/11/16 12:39:33;;;;;;;45.47;27.20;;;12.00;99.90;;;;;;5013867;28;20033;-73
2021/11/16 12:42:11;;;;;;;40.38;22.45;;;11.90;99.90;;;;;;5013233;28;20046;-73
2021/11/16 12:44:43;;;;;;;40.22;23.63;;;11.90;99.90;;;;;;5013585;28;20069;-72
2021/11/16 12:47:10;;;;;;;43.83;24.20;;;11.90;99.90;;;;;;5013851;28;20022;-73
2021/11/16 12:49:39;;;;;;;41.40;23.52;;;11.90;99.90;;;;;;5013575;28;20022;-73
2021/11/16 12:52:08;;;;;;;41.08;24.55;;;11.90;99.90;;;;;;5013498;28;20042;-74
2021/11/16 12:54:35;;;;;;;41.83;24.80;;;12.00;99.90;;;;;;5013812;28;20153;-73
2021/11/16 12:57:01;;;;;;;48.42;28.83;;;12.00;99.90;;;;;;5013734;28;20053;-74
2021/11/16 12:59:32;;;;;;;39.97;22.75;;;12.00;99.90;;;;;;5013758;28;20527;-73
2021/11/16 13:02:18;;;;;;;41.60;24.40;;;12.00;99.90;;;;;;5013265;28;20087;-74
2021/11/16 13:04:49;;;;;;;47.40;27.13;;;12.00;99.90;;;;;;5013410;28;20079;-75
2021/11/16 13:07:33;;;;;;;;;;;12.10;99.90;;;;;;5013826;28;20026;-72